Ferme-Neuve, Canada
Current Conditions -  °F | °C
As of 9:00 PM on Wednesday 22 Oct 2014 (Local Time) from CYND Reporting Station
Clear Clear  
Wind Chill: 50°   Ceiling: Unl
Heat Index: 50°   Visibility: 15mi
Dew Point: 37°   Wind: 6mph
Humidity: 62%   Direction: 20°NNE
Pressure: 30.25"   Gusts: NA
Location:  46.7°N, 75.45°W
Report Text: CYND 230100Z 02005KT 15SM SKC 10/03 A3025 RMK LAST OBS/NEXT 231100 UTC SLP244
Loading
Personal Weather Stations






























Interactive Weather Map
Tropical Storm Tracking
New forecast layout! Learn more

10-Day Weather Forecast

Advertisements
Track Severe Weather on mobile